createdAt,value
2023-03-06T00:00:57.245Z,-1.07
2023-03-06T00:03:27.740Z,-1.28
2023-03-06T00:05:57.238Z,-1.31
2023-03-06T00:08:25.552Z,-1.48
2023-03-06T00:10:52.098Z,-2.14
2023-03-06T00:13:19.912Z,-2.64
2023-03-06T00:15:47.644Z,-1.83
2023-03-06T00:18:14.595Z,-1.50
2023-03-06T00:20:43.050Z,-1.23
2023-03-06T00:23:11.087Z,-1.35
2023-03-06T00:25:38.787Z,-1.76
2023-03-06T00:28:06.465Z,-2.55
2023-03-06T00:30:33.318Z,-2.88
2023-03-06T00:32:59.934Z,-2.78
2023-03-06T00:35:26.598Z,-3.66
2023-03-06T00:37:53.237Z,-3.60
2023-03-06T00:40:21.461Z,-2.86
2023-03-06T00:42:48.157Z,-3.01
2023-03-06T00:45:14.985Z,-3.00
2023-03-06T00:47:41.726Z,-3.35
2023-03-06T00:50:09.132Z,-2.81
2023-03-06T00:52:36.101Z,-3.29
2023-03-06T00:55:02.769Z,-3.54
2023-03-06T00:57:30.324Z,-2.30
2023-03-06T00:59:57.344Z,-2.37
2023-03-06T01:02:24.110Z,-3.80
2023-03-06T01:04:51.256Z,-3.03
2023-03-06T01:07:17.889Z,-2.15
2023-03-06T01:09:44.474Z,-2.75
2023-03-06T01:12:11.185Z,-1.89
2023-03-06T01:14:38.809Z,-2.65
2023-03-06T01:17:05.477Z,-1.95
2023-03-06T01:19:32.055Z,-1.86
2023-03-06T01:21:58.635Z,-2.05
2023-03-06T01:24:25.904Z,-2.13
2023-03-06T01:26:56.253Z,-2.22
2023-03-06T01:29:23.069Z,-2.66
2023-03-06T01:31:49.671Z,-3.10
2023-03-06T01:34:16.368Z,-3.11
2023-03-06T01:36:42.943Z,-2.75
2023-03-06T01:39:10.255Z,-2.65
2023-03-06T01:41:37.024Z,-2.83
2023-03-06T01:44:03.788Z,-2.93
2023-03-06T01:46:32.526Z,-2.60
2023-03-06T01:49:11.696Z,-2.13
2023-03-06T01:51:42.099Z,-1.96
2023-03-06T01:54:22.721Z,-3.02
2023-03-06T01:56:54.441Z,-1.65
2023-03-06T01:59:22.399Z,-1.93
2023-03-06T02:01:51.097Z,-3.63
2023-03-06T02:04:18.336Z,-2.71
2023-03-06T02:06:45.415Z,-2.86
2023-03-06T02:09:13.465Z,-2.78
2023-03-06T02:11:43.983Z,-2.61
2023-03-06T02:14:16.794Z,-2.46
2023-03-06T02:16:44.296Z,-2.09
2023-03-06T02:19:32.489Z,-1.91
2023-03-06T02:21:59.549Z,-1.77
2023-03-06T02:24:42.216Z,-2.26
2023-03-06T02:27:12.422Z,-3.00
2023-03-06T02:29:39.147Z,-3.47
2023-03-06T02:32:05.990Z,-3.62
2023-03-06T02:34:48.572Z,-4.02
2023-03-06T02:37:15.287Z,-4.03
2023-03-06T02:39:46.942Z,-3.50
2023-03-06T02:42:22.972Z,-2.98
2023-03-06T02:44:51.261Z,-3.57
2023-03-06T02:47:17.863Z,-4.21
2023-03-06T02:49:44.541Z,-4.15
2023-03-06T02:52:11.116Z,-3.58
2023-03-06T02:54:39.232Z,-4.94
2023-03-06T02:57:06.746Z,-3.18
2023-03-06T02:59:34.067Z,-3.62
2023-03-06T03:02:01.665Z,-3.36
2023-03-06T03:04:28.846Z,-3.58
2023-03-06T03:06:56.496Z,-3.48
2023-03-06T03:09:24.712Z,-2.98
2023-03-06T03:11:51.286Z,-2.99
2023-03-06T03:14:17.971Z,-2.88
2023-03-06T03:16:46.309Z,-2.83
2023-03-06T03:19:13.129Z,-2.60
2023-03-06T03:21:40.675Z,-2.71
2023-03-06T03:24:07.929Z,-2.53
2023-03-06T03:26:34.590Z,-2.48
2023-03-06T03:29:07.604Z,-2.51
2023-03-06T03:31:34.456Z,-2.52
2023-03-06T03:34:02.477Z,-2.33
2023-03-06T03:36:32.195Z,-2.29
2023-03-06T03:39:00.249Z,-2.52
2023-03-06T03:41:27.099Z,-2.82
2023-03-06T03:43:53.784Z,-3.68
2023-03-06T03:46:21.575Z,-2.66
2023-03-06T03:48:50.141Z,-2.62
2023-03-06T03:51:17.016Z,-2.69
2023-03-06T03:53:49.255Z,-2.85
2023-03-06T03:56:19.614Z,-4.76
2023-03-06T03:58:54.736Z,-4.27
2023-03-06T04:01:22.445Z,-3.90
2023-03-06T04:03:49.072Z,-3.46
2023-03-06T04:06:17.289Z,-3.64
2023-03-06T04:08:44.372Z,-3.77
2023-03-06T04:11:11.345Z,-3.07
2023-03-06T04:13:38.060Z,-3.39
2023-03-06T04:16:06.016Z,-4.27
2023-03-06T04:18:34.028Z,-3.39
2023-03-06T04:21:04.473Z,-4.96
2023-03-06T04:23:31.495Z,-4.60
2023-03-06T04:25:58.250Z,-5.45
2023-03-06T04:28:25.481Z,-4.32
2023-03-06T04:30:52.401Z,-3.86
2023-03-06T04:33:20.422Z,-3.31
2023-03-06T04:35:48.437Z,-3.33
2023-03-06T04:38:20.473Z,-3.38
2023-03-06T04:40:49.761Z,-3.20
2023-03-06T04:43:16.762Z,-3.15
2023-03-06T04:45:43.339Z,-4.07
2023-03-06T04:48:13.182Z,-3.26
2023-03-06T04:50:39.853Z,-3.11
2023-03-06T04:53:06.632Z,-3.18
2023-03-06T04:55:33.201Z,-3.03
2023-03-06T04:57:59.790Z,-3.11
2023-03-06T05:00:30.543Z,-3.36
2023-03-06T05:02:59.449Z,-4.35
2023-03-06T05:05:26.392Z,-3.06
2023-03-06T05:07:53.333Z,-3.76
2023-03-06T05:10:20.722Z,-4.34
2023-03-06T05:12:47.417Z,-4.39
2023-03-06T05:15:14.996Z,-4.73
2023-03-06T05:17:42.117Z,-5.36
2023-03-06T05:20:11.071Z,-4.45
2023-03-06T05:22:37.944Z,-4.72
2023-03-06T05:25:05.340Z,-5.17
2023-03-06T05:27:32.390Z,-4.58
2023-03-06T05:29:59.233Z,-3.89
2023-03-06T05:32:25.925Z,-3.95
2023-03-06T05:34:53.317Z,-4.46
2023-03-06T05:37:20.222Z,-4.69
2023-03-06T05:39:46.970Z,-3.78
2023-03-06T05:42:13.684Z,-3.52
2023-03-06T05:44:41.742Z,-4.16
2023-03-06T05:47:09.143Z,-4.07
2023-03-06T05:49:36.640Z,-6.77
2023-03-06T05:52:04.563Z,-3.06
2023-03-06T05:54:32.722Z,-3.03
2023-03-06T05:56:59.548Z,-2.93
2023-03-06T05:59:28.414Z,-2.99
2023-03-06T06:01:56.127Z,-3.03
2023-03-06T06:04:24.366Z,-3.16
2023-03-06T06:06:53.668Z,-3.74
2023-03-06T06:09:22.460Z,-2.94
2023-03-06T06:11:57.366Z,-4.12
2023-03-06T06:14:24.303Z,-3.15
2023-03-06T06:16:51.465Z,-3.09
2023-03-06T06:19:20.813Z,-4.37
2023-03-06T06:21:49.871Z,-4.55
2023-03-06T06:24:19.088Z,-4.89
2023-03-06T06:26:46.169Z,-5.05
2023-03-06T06:29:13.648Z,-4.02
2023-03-06T06:31:40.637Z,-3.97
2023-03-06T06:34:10.196Z,-3.76
2023-03-06T06:36:37.528Z,-4.44
2023-03-06T06:39:04.996Z,-4.15
2023-03-06T06:42:00.075Z,-4.84
2023-03-06T06:44:19.999Z,-4.24
2023-03-06T06:47:21.210Z,-4.16
2023-03-06T06:49:34.394Z,-5.10
2023-03-06T06:52:01.178Z,-4.62
2023-03-06T06:54:28.306Z,-4.90
2023-03-06T06:56:54.921Z,-4.88
2023-03-06T06:59:23.652Z,-4.96
2023-03-06T07:01:51.860Z,-4.20
2023-03-06T07:04:19.231Z,-4.71
2023-03-06T07:06:46.253Z,-5.09
2023-03-06T07:09:13.982Z,-5.95
2023-03-06T07:11:41.123Z,-4.71
2023-03-06T07:14:08.211Z,-5.99
2023-03-06T07:16:34.957Z,-4.32
2023-03-06T07:19:01.708Z,-4.90
2023-03-06T07:21:28.319Z,-4.95
2023-03-06T07:23:57.248Z,-5.20
2023-03-06T07:26:25.137Z,-5.10
2023-03-06T07:28:53.660Z,-4.62
2023-03-06T07:31:22.405Z,-5.29
2023-03-06T07:33:50.666Z,-4.66
2023-03-06T07:36:17.800Z,-4.71
2023-03-06T07:38:44.674Z,-5.80
2023-03-06T07:41:13.741Z,-7.25
2023-03-06T07:43:42.055Z,-5.94
2023-03-06T07:46:09.947Z,-4.73
2023-03-06T07:48:37.657Z,-4.71
2023-03-06T07:51:07.465Z,-4.90
2023-03-06T07:53:34.997Z,-4.06
2023-03-06T07:56:08.532Z,-4.36
2023-03-06T07:58:36.601Z,-4.70
2023-03-06T08:01:08.487Z,-3.68
2023-03-06T08:03:35.479Z,-3.99
2023-03-06T08:06:23.389Z,-3.75
2023-03-06T08:08:51.196Z,-4.44
2023-03-06T08:11:20.246Z,-3.72
2023-03-06T08:13:48.809Z,-3.29
2023-03-06T08:16:17.276Z,-4.55
2023-03-06T08:18:46.266Z,-3.29
2023-03-06T08:21:24.924Z,-3.37
2023-03-06T08:23:51.703Z,-3.38
2023-03-06T08:26:21.203Z,-3.68
2023-03-06T08:28:47.862Z,-3.58
2023-03-06T08:31:27.514Z,-2.97
2023-03-06T08:33:55.552Z,-3.12
2023-03-06T08:36:22.441Z,-3.20
2023-03-06T08:38:49.222Z,-4.20
2023-03-06T08:41:16.026Z,-3.37
2023-03-06T08:43:43.178Z,-3.51
2023-03-06T08:46:11.219Z,-3.10
2023-03-06T08:48:38.528Z,-4.52
2023-03-06T08:51:05.522Z,-3.22
2023-03-06T08:53:42.768Z,-3.09
2023-03-06T08:56:18.706Z,-3.02
2023-03-06T08:58:46.243Z,-3.15
2023-03-06T09:01:15.065Z,-3.52
2023-03-06T09:03:42.269Z,-2.90
2023-03-06T09:06:08.957Z,-3.00
2023-03-06T09:08:35.598Z,-2.55
2023-03-06T09:11:02.162Z,-2.66
2023-03-06T09:13:28.816Z,-2.59
2023-03-06T09:15:55.406Z,-2.55
2023-03-06T09:18:21.980Z,-3.62
2023-03-06T09:20:48.537Z,-2.71
2023-03-06T09:23:15.132Z,-2.35
2023-03-06T09:25:41.678Z,-3.62
2023-03-06T09:28:11.784Z,-2.25
2023-03-06T09:30:40.516Z,-2.32
2023-03-06T09:33:07.296Z,-1.93
2023-03-06T09:35:33.953Z,-1.84
2023-03-06T09:38:00.537Z,-4.93
2023-03-06T09:40:58.284Z,-2.38
2023-03-06T09:43:30.762Z,-2.41
2023-03-06T09:45:59.026Z,-1.97
2023-03-06T09:48:45.742Z,-2.06
2023-03-06T09:51:19.889Z,-2.00
2023-03-06T09:54:02.690Z,-1.93
2023-03-06T09:56:32.767Z,-1.77
2023-03-06T09:59:13.379Z,-2.07
2023-03-06T10:01:44.134Z,-1.52
2023-03-06T10:04:35.961Z,-1.60
2023-03-06T10:07:24.001Z,-1.41
2023-03-06T10:10:21.994Z,-1.30
2023-03-06T10:13:06.374Z,-0.99
2023-03-06T10:15:36.194Z,-2.17
2023-03-06T10:18:04.384Z,-0.85
2023-03-06T10:20:40.933Z,-0.84
2023-03-06T10:23:24.881Z,-1.13
2023-03-06T10:26:01.594Z,-1.00
2023-03-06T10:28:48.067Z,-0.85
2023-03-06T10:31:24.906Z,-0.76
2023-03-06T10:33:59.241Z,-0.86
2023-03-06T10:36:28.010Z,-1.00
2023-03-06T10:38:57.288Z,-0.87
2023-03-06T10:41:25.846Z,-0.87
2023-03-06T10:44:04.787Z,-0.86
2023-03-06T10:46:37.434Z,-0.68
2023-03-06T10:49:25.954Z,-0.49
2023-03-06T10:51:59.671Z,-0.58
2023-03-06T10:54:27.490Z,-0.49
2023-03-06T10:56:54.063Z,-1.42
2023-03-06T10:59:25.148Z,-0.64
2023-03-06T11:01:57.707Z,-0.68
2023-03-06T11:04:26.440Z,-0.59
2023-03-06T11:07:15.066Z,-0.45
2023-03-06T11:09:59.487Z,-0.86
2023-03-06T11:12:37.041Z,-0.67
2023-03-06T11:15:06.617Z,-0.34
2023-03-06T11:17:37.063Z,-0.37
2023-03-06T11:20:21.604Z,-0.19
2023-03-06T11:22:56.149Z,-0.06
2023-03-06T11:25:29.268Z,0.06
2023-03-06T11:28:02.196Z,-0.24
2023-03-06T11:30:41.841Z,-0.09
2023-03-06T11:33:17.645Z,-0.07
2023-03-06T11:35:52.048Z,0.11
2023-03-06T11:38:30.851Z,-0.75
2023-03-06T11:41:05.793Z,0.09
2023-03-06T11:43:52.885Z,-0.24
2023-03-06T11:46:34.320Z,-0.17
2023-03-06T11:49:16.836Z,0.09
2023-03-06T11:51:51.448Z,-0.05
2023-03-06T11:54:18.212Z,-0.10
2023-03-06T11:57:02.233Z,-0.52
2023-03-06T11:59:57.875Z,0.26
2023-03-06T12:02:45.049Z,0.12
2023-03-06T12:05:45.932Z,0.08
2023-03-06T12:08:28.352Z,0.15
2023-03-06T12:11:02.427Z,0.24
2023-03-06T12:13:39.528Z,-0.78
2023-03-06T12:16:07.194Z,0.33
2023-03-06T12:18:55.674Z,0.30
2023-03-06T12:21:57.667Z,0.41
2023-03-06T12:24:49.076Z,0.53
2023-03-06T12:27:34.560Z,0.47
2023-03-06T12:30:29.057Z,0.45
2023-03-06T12:33:00.788Z,0.47
2023-03-06T12:35:30.334Z,0.55
2023-03-06T12:38:08.780Z,0.62
2023-03-06T12:40:44.573Z,0.58
2023-03-06T12:43:48.276Z,0.71
2023-03-06T12:46:26.329Z,0.77
2023-03-06T12:49:03.640Z,0.78
2023-03-06T12:51:32.654Z,0.79
2023-03-06T12:54:01.948Z,0.81
2023-03-06T12:56:30.897Z,0.80
2023-03-06T12:59:02.252Z,0.60
2023-03-06T13:02:00.745Z,0.88
2023-03-06T13:04:41.775Z,-0.20
2023-03-06T13:07:19.554Z,0.83
2023-03-06T13:10:07.359Z,0.80
2023-03-06T13:12:56.741Z,0.79
2023-03-06T13:15:29.539Z,0.68
2023-03-06T13:17:56.918Z,0.43
2023-03-06T13:20:42.811Z,0.67
2023-03-06T13:23:31.450Z,0.75
2023-03-06T13:26:08.247Z,-0.22
2023-03-06T13:28:50.271Z,-0.12
2023-03-06T13:31:32.247Z,0.81
2023-03-06T13:34:06.166Z,0.83
2023-03-06T13:36:34.739Z,0.89
2023-03-06T13:39:09.269Z,-0.10
2023-03-06T13:41:52.496Z,0.94
2023-03-06T13:44:24.270Z,0.97
2023-03-06T13:47:01.158Z,0.18
2023-03-06T13:49:29.296Z,-0.29
2023-03-06T13:52:04.861Z,0.91
2023-03-06T13:55:10.169Z,0.80
2023-03-06T13:58:12.318Z,0.46
2023-03-06T14:01:04.174Z,0.93
2023-03-06T14:04:14.704Z,0.88
2023-03-06T14:06:50.472Z,0.23
2023-03-06T14:09:32.244Z,0.89
2023-03-06T14:12:08.501Z,0.95
2023-03-06T14:14:41.681Z,0.05
2023-03-06T14:17:20.492Z,0.93
2023-03-06T14:19:47.620Z,0.68
2023-03-06T14:22:21.009Z,1.00
2023-03-06T14:25:00.888Z,0.90
2023-03-06T14:27:41.608Z,0.89
2023-03-06T14:30:12.881Z,0.89
2023-03-06T14:32:40.579Z,0.94
2023-03-06T14:35:18.915Z,0.98
2023-03-06T14:37:50.105Z,-0.54
2023-03-06T14:40:26.203Z,1.09
2023-03-06T14:43:29.230Z,0.35
2023-03-06T14:46:01.679Z,0.74
2023-03-06T14:48:44.129Z,0.60
2023-03-06T14:51:25.458Z,0.08
2023-03-06T14:53:54.548Z,0.03
2023-03-06T14:56:25.662Z,-0.27
2023-03-06T14:58:55.067Z,0.95
2023-03-06T15:01:28.470Z,0.32
2023-03-06T15:03:59.839Z,1.13
2023-03-06T15:06:42.887Z,1.17
2023-03-06T15:09:25.297Z,1.01
2023-03-06T15:11:53.068Z,1.04
2023-03-06T15:14:27.115Z,0.91
2023-03-06T15:16:53.755Z,1.01
2023-03-06T15:19:22.702Z,1.13
2023-03-06T15:21:51.861Z,1.12
2023-03-06T15:24:34.464Z,1.12
2023-03-06T15:27:06.954Z,0.04
2023-03-06T15:29:38.778Z,1.21
2023-03-06T15:32:34.288Z,1.24
2023-03-06T15:35:22.795Z,1.24
2023-03-06T15:37:49.673Z,0.82
2023-03-06T15:40:19.062Z,1.15
2023-03-06T15:42:46.404Z,0.13
2023-03-06T15:45:22.042Z,1.13
2023-03-06T15:47:50.857Z,0.25
2023-03-06T15:50:25.346Z,1.23
2023-03-06T15:52:52.236Z,1.23
2023-03-06T15:55:25.909Z,-0.42
2023-03-06T15:58:00.946Z,1.15
2023-03-06T16:00:30.834Z,1.15
2023-03-06T16:02:58.665Z,1.19
2023-03-06T16:05:26.887Z,1.19
2023-03-06T16:07:53.856Z,1.15
2023-03-06T16:10:22.892Z,1.10
2023-03-06T16:12:56.469Z,0.98
2023-03-06T16:15:28.818Z,0.42
2023-03-06T16:17:59.901Z,-0.08
2023-03-06T16:20:28.864Z,0.80
2023-03-06T16:22:56.174Z,-1.58
2023-03-06T16:25:24.940Z,0.73
2023-03-06T16:27:55.534Z,0.51
2023-03-06T16:30:23.425Z,0.58
2023-03-06T16:32:50.260Z,0.57
2023-03-06T16:35:18.402Z,0.54
2023-03-06T16:37:48.169Z,0.45
2023-03-06T16:40:26.190Z,-0.68
2023-03-06T16:42:55.022Z,0.13
2023-03-06T16:45:22.834Z,-0.20
2023-03-06T16:47:50.142Z,0.06
2023-03-06T16:50:28.261Z,0.07
2023-03-06T16:52:56.404Z,-0.09
2023-03-06T16:55:25.340Z,0.07
2023-03-06T16:57:52.402Z,-0.01
2023-03-06T17:00:20.435Z,-0.61
2023-03-06T17:02:52.737Z,-0.19
2023-03-06T17:05:19.682Z,-0.19
2023-03-06T17:07:46.653Z,-0.16
2023-03-06T17:10:16.253Z,-0.26
2023-03-06T17:12:43.463Z,-1.43
2023-03-06T17:15:11.376Z,-0.30
2023-03-06T17:17:38.161Z,-0.34
2023-03-06T17:20:11.966Z,-0.59
2023-03-06T17:22:38.860Z,-0.45
2023-03-06T17:25:06.844Z,-1.02
2023-03-06T17:27:34.470Z,-0.54
2023-03-06T17:30:01.568Z,-1.33
2023-03-06T17:32:28.815Z,-1.40
2023-03-06T17:34:55.413Z,-0.63
2023-03-06T17:37:22.121Z,-0.70
2023-03-06T17:39:49.709Z,-0.73
2023-03-06T17:42:16.696Z,-0.81
2023-03-06T17:44:43.477Z,-0.82
2023-03-06T17:47:10.527Z,-0.84
2023-03-06T17:49:37.180Z,-4.48
2023-03-06T17:52:05.691Z,-1.36
2023-03-06T17:54:33.355Z,-2.20
2023-03-06T17:57:03.333Z,-1.04
2023-03-06T17:59:31.962Z,-0.94
2023-03-06T18:01:59.402Z,-1.69
2023-03-06T18:04:26.875Z,-2.23
2023-03-06T18:06:53.514Z,-1.90
2023-03-06T18:09:20.392Z,-3.30
2023-03-06T18:11:47.016Z,-2.80
2023-03-06T18:14:13.685Z,-2.96
2023-03-06T18:16:40.381Z,-2.90
2023-03-06T18:19:07.044Z,-2.38
2023-03-06T18:21:33.634Z,-3.25
2023-03-06T18:24:00.235Z,-1.92
2023-03-06T18:26:29.134Z,-3.82
2023-03-06T18:28:58.328Z,-1.78
2023-03-06T18:31:30.488Z,-2.01
2023-03-06T18:34:01.173Z,-2.68
2023-03-06T18:36:30.668Z,-2.56
2023-03-06T18:38:58.316Z,-2.50
2023-03-06T18:41:25.009Z,-5.56
2023-03-06T18:43:56.610Z,-3.29
2023-03-06T18:46:30.429Z,-4.40
2023-03-06T18:48:57.037Z,-4.82
2023-03-06T18:51:23.614Z,-3.66
2023-03-06T18:53:50.242Z,-4.11
2023-03-06T18:56:19.228Z,-2.98
2023-03-06T18:58:46.730Z,-2.78
2023-03-06T19:01:13.425Z,-3.24
2023-03-06T19:03:40.131Z,-3.49
2023-03-06T19:06:09.247Z,-3.78
2023-03-06T19:08:37.222Z,-4.26
2023-03-06T19:11:06.622Z,-3.93
2023-03-06T19:13:33.398Z,-4.00
2023-03-06T19:16:00.202Z,-4.44
2023-03-06T19:18:28.939Z,-3.53
2023-03-06T19:21:06.400Z,-3.02
2023-03-06T19:23:33.130Z,-3.78
2023-03-06T19:26:00.330Z,-3.39
2023-03-06T19:28:27.411Z,-6.02
2023-03-06T19:30:54.000Z,-2.98
2023-03-06T19:33:20.596Z,-3.86
2023-03-06T19:35:47.892Z,-3.08
2023-03-06T19:38:15.582Z,-4.26
2023-03-06T19:40:49.398Z,-2.87
2023-03-06T19:43:16.197Z,-2.94
2023-03-06T19:45:44.151Z,-4.10
2023-03-06T19:48:12.487Z,-2.93
2023-03-06T19:50:40.604Z,-3.07
2023-03-06T19:53:08.385Z,-3.80
2023-03-06T19:55:35.257Z,-3.19
2023-03-06T19:58:02.041Z,-4.12
2023-03-06T20:00:28.883Z,-3.22
2023-03-06T20:02:58.891Z,-3.98
2023-03-06T20:05:25.479Z,-3.26
2023-03-06T20:07:52.239Z,-3.67
2023-03-06T20:10:19.069Z,-3.80
2023-03-06T20:12:45.774Z,-3.83
2023-03-06T20:15:12.996Z,-4.44
2023-03-06T20:17:42.482Z,-6.04
2023-03-06T20:20:09.914Z,-4.17
2023-03-06T20:22:36.691Z,-3.54
2023-03-06T20:25:03.742Z,-4.24
2023-03-06T20:27:30.419Z,-3.51
2023-03-06T20:29:57.233Z,-4.50
2023-03-06T20:32:23.984Z,-3.78
2023-03-06T20:34:50.740Z,-3.91
2023-03-06T20:37:17.417Z,-3.78
2023-03-06T20:39:44.084Z,-4.30
2023-03-06T20:42:10.743Z,-4.08
2023-03-06T20:44:37.406Z,-3.82
2023-03-06T20:47:04.194Z,-4.95
2023-03-06T20:49:33.359Z,-6.26
2023-03-06T20:52:00.052Z,-3.88
2023-03-06T20:54:27.086Z,-3.88
2023-03-06T20:56:53.728Z,-5.45
2023-03-06T20:59:23.699Z,-4.68
2023-03-06T21:01:50.392Z,-4.21
2023-03-06T21:04:17.314Z,-4.08
2023-03-06T21:06:46.757Z,-4.32
2023-03-06T21:09:16.080Z,-4.46
2023-03-06T21:11:42.860Z,-4.82
2023-03-06T21:14:09.551Z,-7.62
2023-03-06T21:16:36.619Z,-7.16
2023-03-06T21:19:03.416Z,-7.30
2023-03-06T21:21:33.251Z,-6.91
2023-03-06T21:24:00.716Z,-7.89
2023-03-06T21:26:30.431Z,-6.47
2023-03-06T21:29:00.655Z,-5.17
2023-03-06T21:31:28.691Z,-5.49
2023-03-06T21:33:55.782Z,-4.89
2023-03-06T21:36:23.295Z,-5.25
2023-03-06T21:38:51.715Z,-5.27
2023-03-06T21:41:21.683Z,-5.41
2023-03-06T21:43:48.313Z,-6.47
2023-03-06T21:46:15.048Z,-6.78
2023-03-06T21:48:41.792Z,-6.23
2023-03-06T21:51:13.643Z,-6.29
2023-03-06T21:53:44.171Z,-5.89
2023-03-06T21:56:12.211Z,-6.33
2023-03-06T21:58:38.896Z,-5.87
2023-03-06T22:01:13.556Z,-6.11
2023-03-06T22:03:40.404Z,-5.91
2023-03-06T22:06:18.255Z,-5.96
2023-03-06T22:08:45.392Z,-7.62
2023-03-06T22:11:17.065Z,-6.87
2023-03-06T22:13:44.732Z,-7.94
2023-03-06T22:16:11.818Z,-9.28
2023-03-06T22:18:38.902Z,-5.41
2023-03-06T22:21:13.049Z,-4.96
2023-03-06T22:23:42.514Z,-4.78
2023-03-06T22:26:12.670Z,-4.91
2023-03-06T22:28:40.206Z,-5.54
2023-03-06T22:31:09.453Z,-5.82
2023-03-06T22:33:36.832Z,-5.83
2023-03-06T22:36:07.217Z,-5.89
2023-03-06T22:38:35.687Z,-5.52
2023-03-06T22:41:02.419Z,-6.26
2023-03-06T22:43:29.323Z,-6.79
2023-03-06T22:46:08.407Z,-7.39
2023-03-06T22:48:35.143Z,-7.06
2023-03-06T22:51:09.985Z,-6.63
2023-03-06T22:53:37.272Z,-6.68
2023-03-06T22:56:06.157Z,-6.56
2023-03-06T22:58:36.760Z,-7.40
2023-03-06T23:01:06.029Z,-5.76
2023-03-06T23:03:32.850Z,-5.29
2023-03-06T23:05:59.423Z,-5.13
2023-03-06T23:08:26.072Z,-5.39
2023-03-06T23:10:52.607Z,-5.63
2023-03-06T23:13:38.495Z,-4.93
2023-03-06T23:16:24.096Z,-5.39
2023-03-06T23:19:09.585Z,-5.00
2023-03-06T23:21:55.196Z,-5.93
2023-03-06T23:24:40.725Z,-6.44
2023-03-06T23:27:07.497Z,-6.23
2023-03-06T23:29:34.049Z,-5.97
2023-03-06T23:32:01.474Z,-6.92
2023-03-06T23:34:28.192Z,-5.75
2023-03-06T23:36:54.835Z,-5.46
2023-03-06T23:39:22.090Z,-4.97
2023-03-06T23:41:48.853Z,-6.44
2023-03-06T23:44:15.451Z,-6.47
2023-03-06T23:46:42.517Z,-6.43
2023-03-06T23:49:09.124Z,-6.40
2023-03-06T23:51:36.024Z,-6.27
2023-03-06T23:54:02.727Z,-5.93
2023-03-06T23:56:29.427Z,-6.00
2023-03-06T23:58:56.451Z,-6.08
